Time;durP1;ratioP1;P1;durP2;ratioP2;P2;SDS_P1;SDS_P2;PMS_P1;PMS_P2;Temp;Humidity;BMP_temperature;BMP_pressure;BME280_temperature;BME280_humidity;BME280_pressure;Samples;Min_cycle;Max_cycle;Signal;HPM_P1;HPM_P2
2023/10/07 00:02:52;;;;;;;1.97;1.07;;;17.60;80.40;;;;;;5008423;28;20028;-84
2023/10/07 00:05:25;;;;;;;1.65;1.00;;;17.60;80.30;;;;;;5005818;28;20112;-83
2023/10/07 00:08:00;;;;;;;1.95;1.00;;;17.60;80.40;;;;;;4990820;28;20026;-82
2023/10/07 00:10:26;;;;;;;1.88;1.25;;;17.60;80.50;;;;;;5011111;28;20128;-84
2023/10/07 00:12:52;;;;;;;1.90;1.10;;;17.60;80.40;;;;;;5012807;28;20048;-86
2023/10/07 00:15:21;;;;;;;2.07;1.10;;;17.60;80.50;;;;;;5010347;28;20029;-84
2023/10/07 00:17:49;;;;;;;2.08;1.17;;;17.60;80.60;;;;;;5021259;28;20026;-84
2023/10/07 00:20:20;;;;;;;2.90;1.30;;;17.50;80.70;;;;;;5008078;28;20702;-89
2023/10/07 00:22:53;;;;;;;2.45;1.17;;;17.50;80.50;;;;;;4996362;28;20501;-86
2023/10/07 00:25:19;;;;;;;1.30;0.90;;;17.70;84.10;;;;;;4989578;28;20021;-85
2023/10/07 00:27:48;;;;;;;2.72;1.00;;;17.50;80.80;;;;;;5009627;28;20083;-84
2023/10/07 00:30:20;;;;;;;2.83;1.20;;;17.40;80.80;;;;;;5010868;28;20454;-84
2023/10/07 00:32:46;;;;;;;2.83;1.25;;;17.40;81.20;;;;;;5008381;28;20526;-82
2023/10/07 00:35:12;;;;;;;1.90;1.20;;;17.40;80.90;;;;;;5008236;28;20104;-83
2023/10/07 00:37:43;;;;;;;3.20;1.30;;;17.30;80.90;;;;;;5032750;28;20036;-81
2023/10/07 00:42:51;;;;;;;3.67;1.17;;;17.30;81.20;;;;;;5001519;28;20028;-85
2023/10/07 00:45:20;;;;;;;3.07;1.20;;;17.30;81.30;;;;;;4992033;28;20132;-86
2023/10/07 00:47:49;;;;;;;2.25;1.20;;;17.20;81.30;;;;;;5021477;28;20478;-83
2023/10/07 00:50:16;;;;;;;1.95;1.20;;;17.30;81.70;;;;;;5010912;28;20402;-84
2023/10/07 00:55:25;;;;;;;1.85;1.08;;;17.20;81.80;;;;;;5025143;28;20036;-84
2023/10/07 00:57:53;;;;;;;3.17;1.20;;;17.20;81.70;;;;;;5015086;28;20297;-87
2023/10/07 01:02:57;;;;;;;2.22;1.17;;;17.20;81.80;;;;;;5008990;28;20064;-84
2023/10/07 01:05:27;;;;;;;3.20;1.13;;;17.20;82.10;;;;;;5025412;28;20024;-86
2023/10/07 01:07:53;;;;;;;3.42;1.55;;;17.20;82.20;;;;;;4991274;28;20398;-84
2023/10/07 01:10:26;;;;;;;3.10;1.20;;;17.10;82.20;;;;;;5010909;28;20394;-82
2023/10/07 01:12:55;;;;;;;2.17;1.20;;;17.10;82.30;;;;;;4996290;28;20278;-81
2023/10/07 01:15:27;;;;;;;3.05;1.20;;;17.10;82.20;;;;;;4992987;28;20029;-88
2023/10/07 01:17:56;;;;;;;2.70;1.30;;;17.10;82.40;;;;;;5018343;28;20676;-84
2023/10/07 01:20:24;;;;;;;4.03;1.25;;;17.10;82.50;;;;;;5021571;28;20025;-82
2023/10/07 01:23:04;;;;;;;4.13;1.60;;;17.10;82.70;;;;;;5009726;28;20398;-82
2023/10/07 01:25:32;;;;;;;3.13;1.30;;;17.00;82.80;;;;;;5012361;28;20021;-83
2023/10/07 01:28:01;;;;;;;2.35;1.40;;;17.00;82.70;;;;;;5005613;28;20085;-81
2023/10/07 01:30:29;;;;;;;3.28;1.40;;;;;;;;;;5011456;28;20383;-85
2023/10/07 01:36:16;;;;;;;2.77;1.20;;;17.00;83.30;;;;;;5003480;28;20072;-82
2023/10/07 01:38:44;;;;;;;2.28;1.27;;;16.90;83.00;;;;;;5025557;28;20033;-82
2023/10/07 01:41:18;;;;;;;4.00;1.30;;;17.00;84.00;;;;;;4993537;28;20383;-81
2023/10/07 01:43:59;;;;;;;2.22;1.20;;;17.00;83.40;;;;;;5009412;28;20047;-83
2023/10/07 01:46:30;;;;;;;3.45;1.40;;;17.00;83.40;;;;;;5013071;28;20458;-86
2023/10/07 01:49:04;;;;;;;2.57;1.20;;;16.90;83.40;;;;;;4983924;28;20186;-83
2023/10/07 01:51:30;;;;;;;2.65;1.20;;;16.90;83.60;;;;;;5002783;28;20037;-84
2023/10/07 01:54:03;;;;;;;2.58;1.42;;;16.90;83.80;;;;;;5001420;28;20033;-82
2023/10/07 01:56:31;;;;;;;2.90;1.48;;;16.90;84.00;;;;;;5001488;28;20311;-86
2023/10/07 01:59:03;;;;;;;2.92;1.30;;;16.90;84.30;;;;;;4988355;28;20030;-86
2023/10/07 02:01:29;;;;;;;3.50;1.33;;;16.90;84.20;;;;;;5002155;28;20026;-82
2023/10/07 02:03:59;;;;;;;3.45;1.40;;;16.90;84.40;;;;;;5007916;28;20026;-82
2023/10/07 02:06:26;;;;;;;3.47;1.40;;;17.00;84.60;;;;;;5021071;28;20108;-85
2023/10/07 02:08:54;;;;;;;2.90;1.40;;;17.00;84.40;;;;;;5002864;28;20443;-85
2023/10/07 02:11:30;;;;;;;2.85;1.40;;;17.00;84.60;;;;;;4980711;28;20058;-84
2023/10/07 02:13:56;;;;;;;3.47;1.50;;;17.00;84.70;;;;;;4987135;28;20041;-85
2023/10/07 02:16:25;;;;;;;3.70;1.35;;;17.00;87.40;;;;;;5007367;28;20486;-87
2023/10/07 02:18:52;;;;;;;3.47;1.30;;;17.00;84.60;;;;;;5004901;28;20105;-86
2023/10/07 02:21:20;;;;;;;3.67;1.42;;;17.10;84.80;;;;;;4997952;28;20033;-82
2023/10/07 02:23:47;;;;;;;2.30;1.20;;;17.10;85.00;;;;;;4988504;28;20079;-80
2023/10/07 02:26:19;;;;;;;2.67;1.35;;;17.10;84.90;;;;;;5007366;28;20116;-81
2023/10/07 02:28:52;;;;;;;3.30;1.30;;;17.10;85.10;;;;;;5005381;28;20037;-81
2023/10/07 02:31:24;;;;;;;2.13;1.27;;;17.10;85.10;;;;;;4992354;28;20034;-83
2023/10/07 02:33:57;;;;;;;2.45;1.40;;;17.20;85.50;;;;;;5012790;28;20026;-84
2023/10/07 02:36:36;;;;;;;3.37;1.30;;;17.20;85.10;;;;;;4999143;28;20038;-82
2023/10/07 02:39:18;;;;;;;3.15;1.38;;;17.20;85.10;;;;;;5004922;28;20072;-83
2023/10/07 02:41:47;;;;;;;3.08;1.30;;;17.20;85.30;;;;;;5006898;28;20037;-82
2023/10/07 02:44:25;;;;;;;2.50;1.33;;;17.20;85.10;;;;;;5004099;28;20026;-84
2023/10/07 02:46:54;;;;;;;3.90;1.60;;;17.20;85.30;;;;;;5012335;28;20021;-81
2023/10/07 02:49:21;;;;;;;3.03;1.30;;;17.20;85.40;;;;;;5012932;28;20104;-84
2023/10/07 02:51:55;;;;;;;3.70;1.40;;;17.20;85.40;;;;;;5018655;28;20117;-85
2023/10/07 02:54:22;;;;;;;2.90;1.35;;;17.20;85.40;;;;;;4993570;28;20034;-84
2023/10/07 02:56:55;;;;;;;3.30;1.40;;;17.20;85.40;;;;;;5022336;28;20034;-81
2023/10/07 02:59:35;;;;;;;3.05;1.50;;;17.20;85.70;;;;;;4986246;28;20026;-83
2023/10/07 03:08:02;;;;;;;2.67;1.20;;;17.30;86.80;;;;;;4931517;29;20374;-82
2023/10/07 03:13:02;;;;;;;3.42;1.40;;;17.20;86.30;;;;;;4962834;28;20049;-87
2023/10/07 03:18:00;;;;;;;2.90;1.20;;;17.30;86.00;;;;;;5002099;28;20044;-82
2023/10/07 03:20:31;;;;;;;4.78;1.60;;;17.30;86.10;;;;;;4992419;28;20033;-83
2023/10/07 03:23:19;;;;;;;2.03;1.30;;;17.40;86.00;;;;;;5005176;28;20076;-81
2023/10/07 03:28:25;;;;;;;2.10;1.20;;;17.30;86.10;;;;;;5009339;28;20025;-85
2023/10/07 03:30:52;;;;;;;2.30;1.20;;;17.40;88.70;;;;;;4997407;28;20052;-85
2023/10/07 03:33:32;;;;;;;2.95;1.40;;;17.40;86.30;;;;;;5012486;28;20036;-83
2023/10/07 03:36:31;;;;;;;2.35;1.45;;;17.40;86.50;;;;;;5022453;28;20026;-84
2023/10/07 03:39:10;;;;;;;2.30;1.25;;;17.40;86.20;;;;;;5005602;28;20442;-82
2023/10/07 03:41:47;;;;;;;2.33;1.13;;;17.40;86.20;;;;;;5008327;28;20030;-89
2023/10/07 03:44:20;;;;;;;5.07;1.30;;;17.40;86.20;;;;;;5006192;28;20029;-82
2023/10/07 03:46:54;;;;;;;2.20;1.10;;;17.50;90.10;;;;;;5009348;28;20031;-85
2023/10/07 03:49:21;;;;;;;2.67;1.40;;;17.40;86.60;;;;;;4995862;28;20044;-82
2023/10/07 03:51:48;;;;;;;2.65;1.50;;;17.40;86.20;;;;;;4994185;28;20037;-86
2023/10/07 03:54:22;;;;;;;2.30;1.20;;;17.40;86.40;;;;;;4992945;28;20056;-88
2023/10/07 03:56:49;;;;;;;1.85;1.10;;;;;;;;;;5021090;28;20104;-81
2023/10/07 03:59:15;;;;;;;3.20;1.48;;;17.40;85.90;;;;;;5004859;28;20060;-83
2023/10/07 04:01:44;;;;;;;3.45;1.48;;;17.40;86.40;;;;;;4991883;28;20025;-89
2023/10/07 04:04:12;;;;;;;3.13;1.30;;;17.40;86.60;;;;;;5007712;28;20017;-85
2023/10/07 04:06:38;;;;;;;3.73;1.60;;;17.40;86.80;;;;;;5030115;28;20033;-85
2023/10/07 04:09:09;;;;;;;3.38;1.30;;;17.40;86.90;;;;;;4994101;28;20041;-83
2023/10/07 04:11:36;;;;;;;3.40;1.50;;;17.40;87.00;;;;;;5002491;28;20049;-83
2023/10/07 04:16:52;;;;;;;2.42;1.33;;;17.40;87.10;;;;;;5020815;28;20041;-81
2023/10/07 04:21:45;;;;;;;2.50;1.40;;;17.40;87.10;;;;;;5006979;28;20022;-82
2023/10/07 04:24:13;;;;;;;2.88;1.40;;;17.40;87.00;;;;;;4997756;28;20339;-82
2023/10/07 04:26:39;;;;;;;2.88;1.42;;;17.40;87.00;;;;;;4990859;28;20030;-82
2023/10/07 04:29:15;;;;;;;3.72;1.50;;;17.40;87.20;;;;;;5013420;28;20497;-82
2023/10/07 04:31:45;;;;;;;2.20;1.20;;;17.40;87.60;;;;;;4991573;28;20072;-88
2023/10/07 04:34:15;;;;;;;2.30;1.30;;;17.40;87.10;;;;;;4997255;28;20711;-83
2023/10/07 04:41:30;;;;;;;3.10;1.15;;;17.40;87.10;;;;;;5025693;28;20380;-82
2023/10/07 04:42:36;;;;;;;2.63;1.48;;;17.40;87.20;;;;;;5008472;28;20510;-82
2023/10/07 04:45:35;;;;;;;1.93;1.20;;;17.50;87.20;;;;;;5031422;28;20045;-82
2023/10/07 04:48:16;;;;;;;3.03;1.42;;;17.40;87.20;;;;;;4993242;28;20553;-82
2023/10/07 04:50:52;;;;;;;3.38;1.40;;;17.40;87.00;;;;;;4994968;28;20022;-82
2023/10/07 04:53:25;;;;;;;3.03;1.27;;;17.50;87.20;;;;;;5001278;28;20394;-82
2023/10/07 04:55:59;;;;;;;2.80;1.17;;;17.50;87.30;;;;;;5025698;28;20481;-82
2023/10/07 04:58:25;;;;;;;2.40;1.30;;;17.40;87.20;;;;;;5008341;28;20513;-81
2023/10/07 05:00:51;;;;;;;3.05;1.33;;;17.40;87.20;;;;;;5025375;28;20025;-81
2023/10/07 05:03:19;;;;;;;2.92;1.40;;;17.50;87.30;;;;;;5004158;28;20478;-80
2023/10/07 05:05:45;;;;;;;3.60;1.50;;;17.40;87.20;;;;;;5008572;28;20398;-81
2023/10/07 05:08:17;;;;;;;2.47;1.38;;;17.50;87.40;;;;;;4992625;28;20018;-81
2023/10/07 05:10:52;;;;;;;2.45;1.40;;;17.50;87.70;;;;;;5009727;28;20088;-80
2023/10/07 05:13:19;;;;;;;1.85;1.25;;;17.40;87.90;;;;;;5000099;28;20403;-82
2023/10/07 05:15:45;;;;;;;3.47;1.40;;;17.50;87.60;;;;;;5006951;28;20048;-81
2023/10/07 05:18:16;;;;;;;3.85;1.20;;;17.50;87.60;;;;;;5009203;28;20398;-82
2023/10/07 05:20:46;;;;;;;3.55;1.35;;;17.50;87.80;;;;;;5011648;28;20091;-82
2023/10/07 05:23:17;;;;;;;3.17;1.48;;;17.40;87.80;;;;;;5023286;28;20108;-81
2023/10/07 05:25:50;;;;;;;2.65;1.40;;;17.50;87.80;;;;;;5025109;28;20056;-81
2023/10/07 05:28:20;;;;;;;3.13;1.63;;;17.50;87.90;;;;;;4989666;28;20411;-82
2023/10/07 05:30:52;;;;;;;2.03;1.20;;;17.50;87.90;;;;;;5008178;28;20109;-82
2023/10/07 05:33:20;;;;;;;4.22;1.65;;;17.50;87.80;;;;;;4986678;28;20451;-80
2023/10/07 05:35:49;;;;;;;2.72;1.40;;;17.50;87.40;;;;;;4992531;28;20029;-81
2023/10/07 05:38:19;;;;;;;2.47;1.48;;;17.50;88.10;;;;;;4992885;28;20406;-82
2023/10/07 05:40:49;;;;;;;2.30;1.30;;;17.50;88.20;;;;;;5012730;28;20458;-82
2023/10/07 05:43:16;;;;;;;3.03;1.48;;;17.50;88.00;;;;;;5011937;28;20045;-83
2023/10/07 05:45:42;;;;;;;2.58;1.50;;;17.50;87.80;;;;;;5021228;28;20041;-82
2023/10/07 05:48:08;;;;;;;3.35;1.40;;;17.50;87.90;;;;;;4988072;28;20025;-81
2023/10/07 05:50:34;;;;;;;2.87;1.40;;;17.50;87.90;;;;;;5020211;28;20545;-82
2023/10/07 05:53:05;;;;;;;2.88;1.45;;;17.50;87.90;;;;;;5016956;28;20045;-81
2023/10/07 05:55:33;;;;;;;4.13;1.30;;;17.50;88.00;;;;;;5012450;28;20057;-82
2023/10/07 05:58:02;;;;;;;3.13;1.50;;;17.50;88.10;;;;;;4993368;28;20061;-81
2023/10/07 06:00:32;;;;;;;2.67;1.40;;;17.50;88.10;;;;;;5005685;28;20033;-82
2023/10/07 06:03:05;;;;;;;3.90;1.50;;;17.50;88.90;;;;;;5031829;28;20121;-80
2023/10/07 06:05:33;;;;;;;2.65;1.30;;;17.50;88.20;;;;;;5028928;28;20031;-82
2023/10/07 06:07:59;;;;;;;3.40;1.70;;;17.40;88.10;;;;;;5042477;28;20029;-81
2023/10/07 06:10:25;;;;;;;4.05;1.70;;;17.40;88.20;;;;;;5045141;28;20040;-82
2023/10/07 06:12:55;;;;;;;2.50;1.40;;;17.40;88.20;;;;;;5010621;28;20346;-82
2023/10/07 06:15:23;;;;;;;3.30;1.67;;;17.50;88.30;;;;;;5036929;28;20039;-82
2023/10/07 06:17:50;;;;;;;2.63;1.60;;;17.50;88.90;;;;;;5036404;28;20081;-83
2023/10/07 06:20:15;;;;;;;1.73;1.25;;;17.50;88.30;;;;;;5014005;28;20048;-82
2023/10/07 06:22:45;;;;;;;3.40;1.80;;;17.50;88.40;;;;;;5049451;28;20037;-82
2023/10/07 06:25:12;;;;;;;3.80;1.40;;;17.50;88.60;;;;;;5030016;28;20037;-83
2023/10/07 06:27:42;;;;;;;2.00;1.23;;;17.50;88.50;;;;;;5015586;28;20045;-86
2023/10/07 06:30:09;;;;;;;2.78;1.50;;;17.50;88.40;;;;;;5031117;28;20009;-81
2023/10/07 06:32:45;;;;;;;4.05;1.45;;;17.50;88.40;;;;;;5015392;28;20013;-83
2023/10/07 06:35:21;;;;;;;2.85;1.50;;;17.50;88.50;;;;;;5014063;28;20476;-84
2023/10/07 06:37:48;;;;;;;3.60;1.50;;;17.50;88.60;;;;;;5001703;28;20017;-85
2023/10/07 06:40:28;;;;;;;2.92;1.60;;;18.50;91.70;;;;;;5032354;28;20077;-82
2023/10/07 06:42:58;;;;;;;3.20;1.50;;;17.50;88.60;;;;;;5048195;28;20051;-83
2023/10/07 06:45:35;;;;;;;3.10;1.33;;;17.40;88.40;;;;;;5001383;28;20049;-83
2023/10/07 06:48:09;;;;;;;3.13;1.40;;;17.60;89.00;;;;;;4993790;28;20019;-81
2023/10/07 06:50:45;;;;;;;2.63;1.20;;;17.60;89.10;;;;;;5008015;28;20073;-82
2023/10/07 06:53:21;;;;;;;3.17;1.35;;;17.60;89.10;;;;;;4988156;28;20034;-84
2023/10/07 06:55:51;;;;;;;2.70;1.38;;;17.60;88.90;;;;;;5011131;28;20011;-84
2023/10/07 06:58:22;;;;;;;3.22;1.50;;;17.60;89.10;;;;;;5010203;28;20018;-82
2023/10/07 07:00:51;;;;;;;3.35;1.50;;;17.70;90.50;;;;;;5015788;28;20098;-83
2023/10/07 07:03:20;;;;;;;3.23;1.47;;;17.70;89.10;;;;;;4995833;28;20019;-81
2023/10/07 07:05:46;;;;;;;3.67;1.65;;;17.70;89.00;;;;;;5014031;28;20047;-83
2023/10/07 07:08:13;;;;;;;2.10;1.30;;;17.80;89.10;;;;;;5009925;28;20034;-83
2023/10/07 07:10:40;;;;;;;2.90;1.40;;;17.80;89.20;;;;;;5020473;28;20068;-82
2023/10/07 07:13:17;;;;;;;3.80;1.60;;;18.90;91.10;;;;;;5015894;28;20031;-84
2023/10/07 07:15:45;;;;;;;2.63;1.30;;;17.80;89.30;;;;;;5006317;28;20046;-80
2023/10/07 07:21:31;;;;;;;2.92;1.55;;;18.00;89.30;;;;;;4988252;28;20195;-83
2023/10/07 07:23:40;;;;;;;2.25;1.30;;;18.00;89.50;;;;;;4989979;28;20050;-81
2023/10/07 07:26:10;;;;;;;3.10;1.40;;;18.10;89.50;;;;;;4976150;28;20122;-84
2023/10/07 07:28:43;;;;;;;3.08;1.60;;;18.10;89.80;;;;;;4989516;28;20028;-81
2023/10/07 07:31:19;;;;;;;2.88;1.42;;;18.20;89.60;;;;;;4965448;28;20045;-82
2023/10/07 07:33:50;;;;;;;3.20;1.73;;;18.20;89.60;;;;;;4995685;28;20033;-86
2023/10/07 07:36:37;;;;;;;4.00;1.60;;;18.30;89.70;;;;;;4987966;28;20026;-82
2023/10/07 07:39:10;;;;;;;3.37;1.70;;;18.30;89.80;;;;;;4991571;28;20210;-81
2023/10/07 07:41:55;;;;;;;3.22;1.50;;;18.40;89.80;;;;;;5001475;28;20019;-79
2023/10/07 07:44:32;;;;;;;2.55;1.48;;;18.50;90.00;;;;;;4992662;28;20030;-80
2023/10/07 07:47:05;;;;;;;4.75;1.67;;;18.50;90.00;;;;;;4997546;28;20381;-82
2023/10/07 07:49:32;;;;;;;4.25;1.80;;;18.70;90.40;;;;;;5000784;28;20033;-82
2023/10/07 07:52:02;;;;;;;3.20;1.50;;;18.80;90.60;;;;;;5008329;28;20362;-84
2023/10/07 07:54:29;;;;;;;2.90;1.60;;;19.10;91.10;;;;;;5017730;28;20025;-80
2023/10/07 07:56:55;;;;;;;2.50;1.20;;;19.40;91.50;;;;;;5006293;28;20036;-82
2023/10/07 07:59:22;;;;;;;3.08;1.60;;;19.60;91.60;;;;;;4998820;28;20033;-81
2023/10/07 08:01:53;;;;;;;3.33;1.30;;;19.90;91.60;;;;;;5007695;28;20050;-82
2023/10/07 08:04:46;;;;;;;4.67;1.60;;;20.30;91.20;;;;;;5014999;28;20045;-80
2023/10/07 08:09:55;;;;;;;3.08;1.40;;;20.70;90.30;;;;;;5031747;28;20025;-82
2023/10/07 08:12:33;;;;;;;3.35;1.60;;;20.80;89.80;;;;;;5013255;28;20042;-81
2023/10/07 08:15:05;;;;;;;3.55;1.48;;;20.90;89.00;;;;;;5009588;28;20068;-82
2023/10/07 08:17:32;;;;;;;2.27;1.40;;;20.90;88.60;;;;;;5012090;28;20021;-83
2023/10/07 08:19:59;;;;;;;3.05;1.55;;;20.90;88.30;;;;;;4997392;28;20616;-85
2023/10/07 08:22:27;;;;;;;3.30;1.45;;;20.90;87.90;;;;;;4980294;28;20026;-85
2023/10/07 08:24:53;;;;;;;3.45;1.70;;;20.90;88.50;;;;;;5003013;28;20018;-85
2023/10/07 08:30:09;;;;;;;4.00;1.80;;;20.80;87.30;;;;;;5006699;28;20025;-87
2023/10/07 08:32:35;;;;;;;3.03;1.40;;;20.70;87.30;;;;;;5006681;28;20025;-82
2023/10/07 08:35:03;;;;;;;3.38;1.50;;;20.70;87.40;;;;;;5012109;28;20705;-84
2023/10/07 08:37:35;;;;;;;2.95;1.60;;;20.70;87.50;;;;;;4976762;28;20489;-82
2023/10/07 08:40:25;;;;;;;3.63;1.77;;;20.70;88.00;;;;;;5026676;28;20799;-84
2023/10/07 08:43:01;;;;;;;4.10;1.30;;;20.70;88.60;;;;;;5010798;28;20475;-84
2023/10/07 08:45:28;;;;;;;3.72;1.73;;;20.90;90.00;;;;;;4991355;28;20056;-84
2023/10/07 08:48:08;;;;;;;4.35;1.77;;;21.20;90.50;;;;;;5032145;28;20378;-87
2023/10/07 08:50:52;;;;;;;3.50;1.67;;;21.50;90.80;;;;;;4996073;28;20580;-86
2023/10/07 08:53:23;;;;;;;5.72;2.00;;;21.80;90.90;;;;;;5006290;28;20115;-86
2023/10/07 08:55:53;;;;;;;3.23;1.50;;;22.20;90.90;;;;;;5009282;28;20543;-82
2023/10/07 08:58:31;;;;;;;2.78;1.75;;;22.50;91.00;;;;;;5009252;28;20461;-87
2023/10/07 09:00:58;;;;;;;4.03;1.88;;;22.90;90.80;;;;;;5010440;28;20080;-87
2023/10/07 09:03:28;;;;;;;3.83;1.88;;;23.30;90.70;;;;;;4996448;28;20060;-84
2023/10/07 09:05:59;;;;;;;5.15;2.08;;;23.60;90.50;;;;;;5025343;28;20785;-84
2023/10/07 09:08:25;;;;;;;4.63;1.93;;;23.90;89.60;;;;;;5005746;28;21009;-83
2023/10/07 09:10:55;;;;;;;6.32;1.98;;;24.20;90.10;;;;;;4982285;28;20068;-84
2023/10/07 09:13:31;;;;;;;3.47;1.80;;;24.50;88.60;;;;;;5031596;28;20037;-85
2023/10/07 09:16:03;;;;;;;2.65;1.67;;;24.70;88.90;;;;;;5010593;28;20025;-85
2023/10/07 09:18:35;;;;;;;5.85;2.00;;;25.00;88.90;;;;;;4996838;28;20106;-84
2023/10/07 09:21:06;;;;;;;4.30;2.07;;;25.40;88.50;;;;;;5006681;28;20033;-84
2023/10/07 09:23:43;;;;;;;2.70;1.55;;;25.60;88.10;;;;;;4991514;28;20029;-84
2023/10/07 09:26:56;;;;;;;3.45;1.70;;;25.90;88.10;;;;;;4999335;28;20383;-81
2023/10/07 09:29:21;;;;;;;3.00;1.70;;;26.30;87.70;;;;;;5002139;28;20033;-83
2023/10/07 09:32:04;;;;;;;3.53;1.65;;;26.60;86.30;;;;;;5021306;28;20387;-83
2023/10/07 09:34:41;;;;;;;3.10;2.00;;;26.90;85.90;;;;;;5015630;28;20079;-82
2023/10/07 09:37:12;;;;;;;4.13;1.80;;;27.10;85.70;;;;;;5020338;28;20447;-81
2023/10/07 09:39:45;;;;;;;2.92;1.80;;;27.40;83.80;;;;;;5015206;28;20026;-81
2023/10/07 09:42:26;;;;;;;4.45;2.15;;;27.50;83.20;;;;;;5008697;28;20037;-83
2023/10/07 09:47:44;;;;;;;3.90;1.90;;;27.80;80.70;;;;;;5021036;28;20132;-82
2023/10/07 09:50:25;;;;;;;2.88;1.77;;;27.90;81.30;;;;;;5008386;28;20391;-79
2023/10/07 09:53:15;;;;;;;3.53;1.80;;;28.00;80.80;;;;;;4981107;28;20026;-81
2023/10/07 09:56:11;;;;;;;4.00;2.10;;;28.20;77.40;;;;;;4983760;28;20045;-83
2023/10/07 09:58:52;;;;;;;4.72;2.38;;;28.40;79.00;;;;;;5002235;28;20025;-84
2023/10/07 10:01:58;;;;;;;3.20;1.90;;;28.60;77.30;;;;;;4988160;28;20499;-83
2023/10/07 10:04:45;;;;;;;3.40;1.98;;;28.60;77.50;;;;;;4962260;28;20054;-83
2023/10/07 10:07:39;;;;;;;4.15;1.95;;;28.80;76.20;;;;;;4977365;28;20509;-76
2023/10/07 10:10:13;;;;;;;3.67;2.03;;;28.90;75.50;;;;;;4993346;28;20045;-77
2023/10/07 10:20:50;;;;;;;2.67;1.80;;;29.40;75.70;;;;;;4993261;28;20127;-80
2023/10/07 10:23:19;;;;;;;2.88;2.30;;;29.60;75.30;;;;;;4968335;28;20022;-77
2023/10/07 10:25:53;;;;;;;3.33;1.85;;;29.70;75.10;;;;;;4989090;28;20087;-77
2023/10/07 10:28:28;;;;;;;2.80;1.80;;;29.80;73.50;;;;;;4971363;28;20435;-79
2023/10/07 10:30:55;;;;;;;5.32;2.15;;;30.00;72.20;;;;;;4994670;28;20167;-79
2023/10/07 10:33:24;;;;;;;4.35;1.83;;;30.20;74.00;;;;;;4991762;28;20045;-80
2023/10/07 10:35:57;;;;;;;3.85;2.10;;;30.40;73.50;;;;;;4976938;28;20022;-81
2023/10/07 10:38:38;;;;;;;3.47;1.90;;;30.50;72.90;;;;;;4991157;28;20484;-81
2023/10/07 10:41:04;;;;;;;3.20;2.07;;;30.70;69.90;;;;;;5008526;28;20046;-79
2023/10/07 10:43:33;;;;;;;3.38;2.00;;;30.80;72.00;;;;;;4991784;28;20533;-79
2023/10/07 10:46:07;;;;;;;4.70;2.30;;;31.00;71.40;;;;;;5010031;28;20045;-80
2023/10/07 10:48:34;;;;;;;3.22;2.30;;;31.10;68.60;;;;;;4977567;28;20038;-78
2023/10/07 10:51:12;;;;;;;3.13;2.05;;;31.20;68.80;;;;;;5011190;28;20057;-81
2023/10/07 10:53:41;;;;;;;3.13;1.90;;;31.20;68.20;;;;;;5005169;28;20375;-75
2023/10/07 10:56:13;;;;;;;4.38;2.22;;;31.20;68.50;;;;;;4990839;28;20419;-77
2023/10/07 10:58:39;;;;;;;3.30;2.10;;;31.30;67.90;;;;;;4992030;28;20025;-75
2023/10/07 11:01:08;;;;;;;4.25;2.30;;;31.40;68.40;;;;;;4978269;28;20030;-77
2023/10/07 11:03:36;;;;;;;4.15;2.15;;;31.50;67.90;;;;;;5017811;28;20203;-76
2023/10/07 11:06:10;;;;;;;3.53;2.13;;;31.60;66.80;;;;;;4990675;28;20018;-77
2023/10/07 11:08:36;;;;;;;3.10;2.00;;;31.60;65.90;;;;;;4998433;28;20165;-75
2023/10/07 11:11:10;;;;;;;3.13;2.03;;;31.70;66.30;;;;;;5004146;28;20033;-81
2023/10/07 11:13:39;;;;;;;4.60;2.60;;;31.80;66.40;;;;;;4998599;28;20041;-79
2023/10/07 11:16:11;;;;;;;3.85;2.35;;;31.80;65.00;;;;;;4983868;28;20109;-80
2023/10/07 11:18:38;;;;;;;4.23;2.30;;;31.90;65.20;;;;;;4997608;28;20475;-75
2023/10/07 11:21:30;;;;;;;3.72;2.05;;;31.90;65.10;;;;;;4975154;28;20075;-79
2023/10/07 11:23:59;;;;;;;2.95;2.05;;;32.00;60.60;;;;;;4982656;28;20060;-80
2023/10/07 11:26:33;;;;;;;3.25;1.95;;;32.00;63.90;;;;;;5034722;28;20022;-78
2023/10/07 11:29:10;;;;;;;4.15;2.35;;;32.00;63.20;;;;;;5002217;28;20059;-80
2023/10/07 11:31:37;;;;;;;3.43;2.17;;;32.00;62.80;;;;;;5007169;28;20036;-80
2023/10/07 11:34:04;;;;;;;4.38;2.00;;;32.00;63.10;;;;;;5034298;28;20017;-81
2023/10/07 11:36:43;;;;;;;3.08;1.90;;;32.00;63.20;;;;;;4991135;28;20022;-81
2023/10/07 11:39:09;;;;;;;4.45;2.20;;;32.10;61.60;;;;;;5003453;28;20049;-80
2023/10/07 11:41:36;;;;;;;3.60;2.30;;;32.20;63.20;;;;;;5023720;28;20087;-79
2023/10/07 11:44:03;;;;;;;3.95;1.85;;;32.30;62.90;;;;;;4994970;28;20018;-79
2023/10/07 11:46:29;;;;;;;3.83;1.98;;;32.40;62.20;;;;;;5003748;28;20045;-81
2023/10/07 11:48:56;;;;;;;2.97;2.03;;;32.50;61.90;;;;;;5036221;28;20061;-80
2023/10/07 11:51:24;;;;;;;4.10;2.10;;;32.50;62.40;;;;;;5025257;28;20025;-80
2023/10/07 11:53:50;;;;;;;3.67;1.87;;;32.60;60.60;;;;;;5028553;28;20508;-79
2023/10/07 11:56:16;;;;;;;3.47;1.98;;;32.60;60.50;;;;;;4982270;28;20033;-79
2023/10/07 11:58:45;;;;;;;3.95;2.20;;;32.70;60.70;;;;;;4993377;28;20021;-79
2023/10/07 12:01:11;;;;;;;3.13;1.98;;;32.30;59.50;;;;;;5025386;28;20021;-79
2023/10/07 12:03:43;;;;;;;4.38;2.15;;;32.70;59.90;;;;;;5022436;28;22772;-79
2023/10/07 12:06:09;;;;;;;3.17;1.73;;;32.70;59.50;;;;;;5006811;28;20035;-79
2023/10/07 12:08:35;;;;;;;2.80;1.88;;;33.00;58.60;;;;;;5002499;28;20089;-87
2023/10/07 12:11:01;;;;;;;3.35;2.00;;;32.90;59.00;;;;;;4986806;28;20216;-84
2023/10/07 12:13:27;;;;;;;4.60;2.00;;;32.90;58.40;;;;;;4996876;28;20060;-86
2023/10/07 12:15:53;;;;;;;3.30;2.00;;;32.90;58.10;;;;;;5014839;28;20248;-84
2023/10/07 12:18:19;;;;;;;2.50;1.90;;;32.90;58.50;;;;;;5014701;28;20329;-85
2023/10/07 12:20:45;;;;;;;2.92;1.90;;;32.90;58.40;;;;;;5024569;28;20041;-86
2023/10/07 12:23:11;;;;;;;4.40;2.00;;;32.90;57.90;;;;;;4980817;28;20041;-87
2023/10/07 12:25:38;;;;;;;3.13;2.08;;;32.80;58.50;;;;;;5007404;28;20093;-88
2023/10/07 12:28:08;;;;;;;2.30;1.80;;;32.80;57.80;;;;;;5033783;28;20048;-84
2023/10/07 12:30:35;;;;;;;3.20;1.75;;;32.80;57.50;;;;;;5034931;28;20025;-83
2023/10/07 12:33:02;;;;;;;3.47;2.00;;;32.90;57.80;;;;;;5050750;28;20018;-87
2023/10/07 12:35:33;;;;;;;2.63;1.65;;;32.90;57.50;;;;;;5031256;28;20037;-86
2023/10/07 12:38:00;;;;;;;3.58;2.15;;;33.00;57.30;;;;;;5042113;28;20031;-85
2023/10/07 12:40:30;;;;;;;3.55;2.00;;;33.00;57.30;;;;;;5018973;28;20018;-83
2023/10/07 12:42:56;;;;;;;3.13;1.88;;;33.10;57.40;;;;;;5026769;28;20029;-86
2023/10/07 12:45:23;;;;;;;3.50;2.10;;;33.20;57.50;;;;;;5034472;28;20033;-85
2023/10/07 12:47:51;;;;;;;3.35;1.77;;;33.30;56.50;;;;;;5014367;28;20044;-85
2023/10/07 12:50:23;;;;;;;2.92;1.80;;;33.20;55.90;;;;;;5035673;28;20021;-85
2023/10/07 12:53:10;;;;;;;3.67;1.88;;;33.10;55.90;;;;;;5019204;28;20077;-83
2023/10/07 12:55:36;;;;;;;3.05;2.10;;;33.10;55.00;;;;;;5031720;28;20021;-83
2023/10/07 12:58:09;;;;;;;2.97;1.90;;;33.00;56.20;;;;;;5018034;28;20022;-86
2023/10/07 13:00:37;;;;;;;3.53;1.70;;;33.00;56.10;;;;;;5044812;28;20037;-85
2023/10/07 13:03:06;;;;;;;3.45;1.95;;;33.00;56.20;;;;;;5031242;28;20025;-85
2023/10/07 13:05:35;;;;;;;2.58;1.70;;;33.00;56.00;;;;;;5015578;28;20079;-84
2023/10/07 13:08:11;;;;;;;2.47;1.88;;;33.10;55.90;;;;;;5054435;28;20063;-84
2023/10/07 13:10:38;;;;;;;4.43;1.67;;;33.10;55.30;;;;;;5013316;28;20048;-83
2023/10/07 13:13:04;;;;;;;4.18;1.90;;;33.00;55.20;;;;;;5041590;28;20032;-84
2023/10/07 13:15:30;;;;;;;3.63;1.83;;;32.90;55.10;;;;;;5020209;28;20022;-86
2023/10/07 13:18:02;;;;;;;5.00;2.17;;;32.80;55.10;;;;;;5051828;28;20038;-82
2023/10/07 13:20:28;;;;;;;3.67;2.05;;;32.70;55.00;;;;;;5009675;28;20084;-85
2023/10/07 13:23:06;;;;;;;2.73;1.70;;;32.70;55.20;;;;;;5012862;28;20046;-83
2023/10/07 13:25:35;;;;;;;5.35;2.10;;;32.70;55.40;;;;;;5031454;28;20495;-83
2023/10/07 13:28:01;;;;;;;3.33;1.98;;;32.70;54.70;;;;;;5008124;28;20470;-85
2023/10/07 13:30:30;;;;;;;2.35;1.60;;;32.60;54.80;;;;;;4990818;28;20030;-84
2023/10/07 13:32:57;;;;;;;3.45;1.90;;;32.50;54.50;;;;;;4996939;28;20091;-84
2023/10/07 13:35:27;;;;;;;3.40;1.70;;;32.30;54.10;;;;;;5013749;28;20021;-84
2023/10/07 13:37:56;;;;;;;3.88;2.00;;;32.20;54.10;;;;;;5009770;28;20398;-83
2023/10/07 13:40:22;;;;;;;4.63;1.90;;;31.90;54.00;;;;;;5002432;28;20032;-84
2023/10/07 13:42:52;;;;;;;4.50;1.90;;;31.70;54.10;;;;;;5023574;28;20451;-83
2023/10/07 13:45:23;;;;;;;3.45;1.70;;;31.60;54.00;;;;;;5005853;28;20053;-84
2023/10/07 13:47:53;;;;;;;2.87;1.80;;;31.40;54.10;;;;;;5030909;28;20073;-85
2023/10/07 13:50:27;;;;;;;3.13;1.80;;;31.20;54.40;;;;;;5048957;28;20030;-86
2023/10/07 13:56:12;;;;;;;3.53;1.67;;;31.00;55.40;;;;;;5043905;28;20453;-86
2023/10/07 13:58:15;;;;;;;2.75;1.55;;;30.90;55.60;;;;;;5009287;28;20046;-85
2023/10/07 14:00:45;;;;;;;2.83;1.53;;;30.90;55.50;;;;;;5017199;28;20041;-84
2023/10/07 14:03:19;;;;;;;3.30;1.75;;;30.80;55.20;;;;;;5002821;28;20395;-83
2023/10/07 14:05:49;;;;;;;3.00;1.67;;;30.80;55.30;;;;;;4990012;28;20386;-82